createdAt,value
2022-12-18T00:02:12.772Z,15.30
2022-12-18T00:04:45.631Z,13.10
2022-12-18T00:07:18.431Z,14.50
2022-12-18T00:09:51.869Z,14.20
2022-12-18T00:12:24.671Z,16.40
2022-12-18T00:14:57.655Z,14.30
2022-12-18T00:17:30.609Z,13.80
2022-12-18T00:20:03.431Z,16.50
2022-12-18T00:22:36.348Z,13.80
2022-12-18T00:25:10.460Z,14.50
2022-12-18T00:27:43.341Z,15.90
2022-12-18T00:30:17.226Z,13.60
2022-12-18T00:32:50.766Z,14.80
2022-12-18T00:35:24.152Z,15.70
2022-12-18T00:37:56.958Z,14.20
2022-12-18T00:40:29.870Z,14.20
2022-12-18T00:43:02.941Z,14.40
2022-12-18T00:45:36.090Z,15.60
2022-12-18T00:48:09.575Z,14.60
2022-12-18T00:50:42.479Z,14.90
2022-12-18T00:53:15.350Z,15.60
2022-12-18T00:55:49.103Z,15.80
2022-12-18T00:58:22.060Z,15.20
2022-12-18T01:00:55.630Z,17.50
2022-12-18T01:03:28.427Z,16.30
2022-12-18T01:06:01.270Z,14.60
2022-12-18T01:08:34.262Z,11.00
2022-12-18T01:11:11.737Z,16.40
2022-12-18T01:13:45.118Z,13.10
2022-12-18T01:16:19.442Z,12.00
2022-12-18T01:18:56.042Z,15.10
2022-12-18T01:21:29.083Z,14.70
2022-12-18T01:24:02.120Z,15.70
2022-12-18T01:26:35.936Z,14.40
2022-12-18T01:29:08.822Z,13.90
2022-12-18T01:31:41.711Z,14.80
2022-12-18T01:34:14.627Z,13.60
2022-12-18T01:36:48.176Z,13.50
2022-12-18T01:39:21.232Z,14.80
2022-12-18T01:42:06.062Z,15.20
2022-12-18T01:45:00.025Z,14.40
2022-12-18T01:47:45.679Z,12.10
2022-12-18T01:50:23.564Z,14.30
2022-12-18T01:53:00.393Z,11.80
2022-12-18T01:55:39.031Z,13.30
2022-12-18T01:58:12.055Z,15.70
2022-12-18T02:00:45.705Z,14.10
2022-12-18T02:03:19.252Z,14.00
2022-12-18T02:06:02.242Z,15.00
2022-12-18T02:08:41.118Z,16.40
2022-12-18T02:11:23.540Z,15.20
2022-12-18T02:14:06.503Z,15.80
2022-12-18T02:16:47.383Z,10.70
2022-12-18T02:19:46.897Z,14.30
2022-12-18T02:22:35.619Z,15.30
2022-12-18T02:25:31.133Z,13.00
2022-12-18T02:28:08.676Z,14.30
2022-12-18T02:30:44.170Z,12.40
2022-12-18T02:33:18.311Z,12.00
2022-12-18T02:35:53.010Z,11.40
2022-12-18T02:38:27.692Z,14.20
2022-12-18T02:41:01.784Z,13.80
2022-12-18T02:43:35.360Z,14.40
2022-12-18T02:46:37.523Z,13.30
2022-12-18T02:49:29.014Z,14.00
2022-12-18T02:52:12.763Z,15.10
2022-12-18T02:54:59.855Z,13.80
2022-12-18T02:57:45.137Z,14.30
2022-12-18T03:00:22.473Z,12.50
2022-12-18T03:03:02.928Z,17.50
2022-12-18T03:05:43.234Z,14.00
2022-12-18T03:08:23.085Z,9.50
2022-12-18T03:11:00.991Z,9.10
2022-12-18T03:13:39.851Z,13.40
2022-12-18T03:16:17.741Z,12.50
2022-12-18T03:18:54.584Z,13.50
2022-12-18T03:21:36.429Z,13.00
2022-12-18T03:24:12.594Z,14.40
2022-12-18T03:26:50.408Z,14.50
2022-12-18T03:29:27.774Z,13.40
2022-12-18T03:32:14.859Z,11.70
2022-12-18T03:34:52.575Z,9.60
2022-12-18T03:37:26.563Z,13.30
2022-12-18T03:39:59.495Z,11.70
2022-12-18T03:42:43.470Z,10.70
2022-12-18T03:45:25.938Z,12.20
2022-12-18T03:48:07.291Z,13.70
2022-12-18T03:50:51.118Z,12.90
2022-12-18T03:53:35.586Z,12.20
2022-12-18T03:56:10.321Z,10.60
2022-12-18T03:58:47.978Z,11.00
2022-12-18T04:01:32.510Z,11.70
2022-12-18T04:04:07.266Z,8.30
2022-12-18T04:06:43.517Z,13.50
2022-12-18T04:09:17.316Z,15.10
2022-12-18T04:11:53.890Z,10.10
2022-12-18T04:14:26.780Z,10.20
2022-12-18T04:17:01.772Z,10.60
2022-12-18T04:19:36.658Z,9.80
2022-12-18T04:22:11.530Z,14.70
2022-12-18T04:24:48.915Z,13.00
2022-12-18T04:27:28.382Z,11.30
2022-12-18T04:30:02.104Z,13.10
2022-12-18T04:32:37.301Z,9.20
2022-12-18T04:35:13.126Z,11.20
2022-12-18T04:37:47.939Z,11.50
2022-12-18T04:40:22.555Z,9.00
2022-12-18T04:42:55.642Z,10.30
2022-12-18T04:45:28.569Z,11.80
2022-12-18T04:48:02.537Z,10.80
2022-12-18T04:50:35.520Z,10.20
2022-12-18T04:53:08.374Z,10.10
2022-12-18T04:55:41.437Z,11.80
2022-12-18T04:58:14.270Z,11.70
2022-12-18T05:00:47.226Z,9.00
2022-12-18T05:03:20.204Z,12.10
2022-12-18T05:05:56.206Z,9.10
2022-12-18T05:08:29.133Z,9.50
2022-12-18T05:11:07.419Z,8.70
2022-12-18T05:13:41.649Z,9.30
2022-12-18T05:16:15.563Z,10.50
2022-12-18T05:18:48.595Z,10.40
2022-12-18T05:21:21.605Z,9.80
2022-12-18T05:23:54.457Z,8.30
2022-12-18T05:26:27.590Z,7.30
2022-12-18T05:29:00.478Z,7.70
2022-12-18T05:31:39.512Z,9.70
2022-12-18T05:34:12.786Z,10.00
2022-12-18T05:36:48.959Z,11.40
2022-12-18T05:39:21.832Z,10.70
2022-12-18T05:41:54.664Z,10.60
2022-12-18T05:44:27.920Z,11.10
2022-12-18T05:47:01.025Z,8.20
2022-12-18T05:49:34.060Z,13.60
2022-12-18T05:52:07.148Z,9.80
2022-12-18T05:54:40.243Z,9.30
2022-12-18T05:57:13.204Z,11.80
2022-12-18T05:59:46.109Z,9.20
2022-12-18T06:02:19.077Z,10.40
2022-12-18T06:04:52.644Z,9.70
2022-12-18T06:07:25.482Z,10.00
2022-12-18T06:09:58.306Z,9.80
2022-12-18T06:12:31.257Z,10.80
2022-12-18T06:15:04.685Z,9.30
2022-12-18T06:17:38.182Z,12.00
2022-12-18T06:20:12.982Z,12.30
2022-12-18T06:22:45.874Z,10.60
2022-12-18T06:25:19.029Z,13.60
2022-12-18T06:27:52.524Z,11.80
2022-12-18T06:30:25.756Z,10.60
2022-12-18T06:32:58.912Z,10.70
2022-12-18T06:35:31.984Z,9.90
2022-12-18T06:38:06.815Z,12.00
2022-12-18T06:40:41.328Z,13.40
2022-12-18T06:43:14.478Z,13.50
2022-12-18T06:45:50.683Z,13.80
2022-12-18T06:48:23.996Z,11.90
2022-12-18T06:50:57.055Z,13.00
2022-12-18T06:53:30.732Z,16.40
2022-12-18T06:56:10.662Z,12.00
2022-12-18T06:58:44.018Z,10.70
2022-12-18T07:01:17.534Z,14.80
2022-12-18T07:03:54.151Z,13.00
2022-12-18T07:06:28.899Z,10.80
2022-12-18T07:09:01.872Z,12.00
2022-12-18T07:11:36.179Z,15.10
2022-12-18T07:14:08.996Z,16.60
2022-12-18T07:16:41.988Z,12.70
2022-12-18T07:19:15.579Z,12.10
2022-12-18T07:21:48.394Z,16.40
2022-12-18T07:24:21.522Z,12.20
2022-12-18T07:26:54.461Z,16.20
2022-12-18T07:29:27.560Z,12.20
2022-12-18T07:32:00.473Z,14.90
2022-12-18T07:34:33.454Z,14.10
2022-12-18T07:37:06.828Z,14.40
2022-12-18T07:39:39.746Z,12.60
2022-12-18T07:42:30.250Z,14.20
2022-12-18T07:47:39.773Z,12.80
2022-12-18T07:50:14.467Z,12.00
2022-12-18T07:52:47.768Z,15.90
2022-12-18T07:55:20.707Z,15.90
2022-12-18T07:57:59.214Z,19.00
2022-12-18T08:00:34.654Z,20.00
2022-12-18T08:03:07.727Z,15.10
2022-12-18T08:05:40.715Z,17.40
2022-12-18T08:08:13.669Z,17.50
2022-12-18T08:10:46.485Z,17.10
2022-12-18T08:13:19.293Z,15.90
2022-12-18T08:15:59.795Z,20.30
2022-12-18T08:21:14.092Z,14.80
2022-12-18T08:23:47.425Z,17.50
2022-12-18T08:26:22.203Z,16.90
2022-12-18T08:28:56.166Z,16.00
2022-12-18T08:31:31.662Z,11.90
2022-12-18T08:34:04.904Z,14.60
2022-12-18T08:36:37.929Z,14.00
2022-12-18T08:39:10.913Z,12.70
2022-12-18T08:41:43.788Z,12.80
2022-12-18T08:44:34.175Z,11.90
2022-12-18T08:47:07.704Z,11.50
2022-12-18T08:49:40.849Z,10.40
2022-12-18T08:52:13.813Z,12.60
2022-12-18T08:54:46.771Z,15.30
2022-12-18T08:57:19.639Z,15.90
2022-12-18T08:59:52.640Z,12.70
2022-12-18T09:02:25.629Z,14.00
2022-12-18T09:04:58.670Z,13.30
2022-12-18T09:07:31.764Z,14.50
2022-12-18T09:10:05.105Z,12.60
2022-12-18T09:12:37.935Z,11.70
2022-12-18T09:15:12.757Z,14.40
2022-12-18T09:17:45.975Z,19.50
2022-12-18T09:20:19.204Z,13.00
2022-12-18T09:22:51.996Z,14.30
2022-12-18T09:25:24.969Z,12.00
2022-12-18T09:27:58.221Z,13.60
2022-12-18T09:30:31.395Z,12.70
2022-12-18T09:33:05.383Z,15.50
2022-12-18T09:35:41.868Z,11.80
2022-12-18T09:38:17.482Z,13.80
2022-12-18T09:40:53.507Z,10.70
2022-12-18T09:43:31.280Z,11.00
2022-12-18T09:46:08.875Z,18.50
2022-12-18T09:48:46.614Z,12.80
2022-12-18T09:51:25.477Z,14.40
2022-12-18T09:54:08.064Z,11.20
2022-12-18T09:56:45.498Z,12.60
2022-12-18T09:59:27.773Z,8.50
2022-12-18T10:02:01.799Z,12.40
2022-12-18T10:04:35.660Z,14.40
2022-12-18T10:07:16.454Z,12.10
2022-12-18T10:10:00.112Z,13.70
2022-12-18T10:12:40.944Z,12.40
2022-12-18T10:15:22.241Z,14.10
2022-12-18T10:18:04.885Z,14.70
2022-12-18T10:20:46.358Z,14.80
2022-12-18T10:23:27.826Z,14.40
2022-12-18T10:26:06.991Z,15.40
2022-12-18T10:28:43.393Z,14.80
2022-12-18T10:31:24.303Z,12.60
2022-12-18T10:33:58.799Z,10.90
2022-12-18T10:36:31.905Z,15.00
2022-12-18T10:39:19.607Z,15.70
2022-12-18T10:42:14.340Z,13.40
2022-12-18T10:44:47.671Z,13.90
2022-12-18T10:47:22.608Z,16.70
2022-12-18T10:49:57.872Z,16.80
2022-12-18T10:52:31.363Z,15.80
2022-12-18T10:55:07.020Z,15.60
2022-12-18T10:57:42.745Z,13.30
2022-12-18T11:00:34.358Z,13.50
2022-12-18T11:03:36.789Z,8.90
2022-12-18T11:06:13.072Z,15.10
2022-12-18T11:08:59.168Z,11.80
2022-12-18T11:11:33.768Z,14.40
2022-12-18T11:14:15.154Z,12.60
2022-12-18T11:17:24.320Z,14.70
2022-12-18T11:19:45.200Z,12.40
2022-12-18T11:22:29.123Z,14.70
2022-12-18T11:25:32.310Z,14.80
2022-12-18T11:28:04.518Z,16.00
2022-12-18T11:30:39.751Z,16.20
2022-12-18T11:33:19.292Z,16.70
2022-12-18T11:35:55.903Z,17.90
2022-12-18T11:38:32.459Z,13.20
2022-12-18T11:41:16.182Z,16.90
2022-12-18T11:43:56.428Z,17.10
2022-12-18T11:46:36.082Z,15.20
2022-12-18T11:49:14.094Z,12.80
2022-12-18T11:51:56.795Z,10.50
2022-12-18T11:54:29.628Z,14.50
2022-12-18T11:57:12.760Z,16.50
2022-12-18T11:59:58.184Z,17.40
2022-12-18T12:02:59.590Z,15.40
2022-12-18T12:05:51.182Z,15.20
2022-12-18T12:08:33.974Z,15.20
2022-12-18T12:11:18.010Z,17.40
2022-12-18T12:14:04.584Z,16.70
2022-12-18T12:16:46.339Z,17.50
2022-12-18T12:19:38.056Z,15.10
2022-12-18T12:22:20.731Z,16.20
2022-12-18T12:25:16.396Z,15.80
2022-12-18T12:28:02.103Z,18.50
2022-12-18T12:30:43.498Z,15.20
2022-12-18T12:33:30.903Z,16.70
2022-12-18T12:36:15.695Z,16.20
2022-12-18T12:38:53.031Z,17.50
2022-12-18T12:41:46.957Z,16.10
2022-12-18T12:44:26.554Z,16.50
2022-12-18T12:47:08.135Z,16.50
2022-12-18T12:49:48.728Z,15.80
2022-12-18T12:52:31.728Z,15.20
2022-12-18T12:55:13.075Z,22.70
2022-12-18T12:57:53.762Z,18.10
2022-12-18T13:00:27.638Z,15.00
2022-12-18T13:03:10.597Z,15.90
2022-12-18T13:05:52.422Z,14.10
2022-12-18T13:12:00.028Z,17.60
2022-12-18T13:14:37.876Z,17.70
2022-12-18T13:17:33.713Z,17.40
2022-12-18T13:20:17.132Z,16.20
2022-12-18T13:22:52.566Z,17.60
2022-12-18T13:25:41.783Z,20.30
2022-12-18T13:28:18.970Z,15.60
2022-12-18T13:31:02.249Z,13.80
2022-12-18T13:34:25.634Z,15.70
2022-12-18T13:37:20.922Z,14.80
2022-12-18T13:39:54.154Z,15.20
2022-12-18T13:43:03.353Z,9.70
2022-12-18T13:46:01.398Z,14.70
2022-12-18T13:48:38.352Z,14.20
2022-12-18T13:51:13.188Z,14.10
2022-12-18T13:53:51.974Z,14.10
2022-12-18T13:56:30.057Z,15.00
2022-12-18T13:59:25.165Z,13.90
2022-12-18T14:02:02.531Z,15.70
2022-12-18T14:04:38.613Z,14.50
2022-12-18T14:07:15.880Z,15.00
2022-12-18T14:10:01.949Z,11.50
2022-12-18T14:13:03.325Z,16.60
2022-12-18T14:15:41.770Z,22.50
2022-12-18T14:18:25.783Z,19.30
2022-12-18T14:21:01.537Z,20.80
2022-12-18T14:23:39.449Z,17.90
2022-12-18T14:26:30.618Z,15.40
2022-12-18T14:29:22.610Z,14.00
2022-12-18T14:32:18.699Z,13.60
2022-12-18T14:34:54.823Z,13.70
2022-12-18T14:37:29.493Z,12.50
2022-12-18T14:40:10.947Z,19.10
2022-12-18T14:42:44.592Z,19.80
2022-12-18T14:45:44.622Z,14.20
2022-12-18T14:51:07.488Z,17.10
2022-12-18T14:53:50.495Z,15.80
2022-12-18T14:56:29.384Z,9.00
2022-12-18T14:59:05.584Z,19.50
2022-12-18T15:01:41.783Z,12.40
2022-12-18T15:04:33.125Z,20.10
2022-12-18T15:07:19.367Z,17.80
2022-12-18T15:10:14.962Z,18.60
2022-12-18T15:12:50.408Z,19.10
2022-12-18T15:15:50.949Z,18.60
2022-12-18T15:21:00.262Z,20.00
2022-12-18T15:23:38.533Z,18.00
2022-12-18T15:26:13.837Z,17.30
2022-12-18T15:28:52.085Z,20.00
2022-12-18T15:31:37.068Z,15.90
2022-12-18T15:34:23.676Z,18.80
2022-12-18T15:36:57.432Z,18.60
2022-12-18T15:39:30.635Z,20.20
2022-12-18T15:42:21.891Z,15.70
2022-12-18T15:44:54.887Z,22.20
2022-12-18T15:47:28.018Z,10.70
2022-12-18T15:50:01.465Z,19.70
2022-12-18T15:52:38.957Z,23.60
2022-12-18T15:55:35.925Z,15.30
2022-12-18T15:58:10.671Z,19.20
2022-12-18T16:00:44.327Z,18.50
2022-12-18T16:03:19.757Z,17.40
2022-12-18T16:05:52.909Z,13.20
2022-12-18T16:08:27.020Z,18.10
2022-12-18T16:11:00.460Z,17.60
2022-12-18T16:13:33.365Z,15.70
2022-12-18T16:16:06.601Z,18.40
2022-12-18T16:18:39.562Z,18.50
2022-12-18T16:21:13.620Z,16.40
2022-12-18T16:23:46.571Z,19.10
2022-12-18T16:26:19.462Z,14.50
2022-12-18T16:28:52.548Z,13.60
2022-12-18T16:31:25.543Z,17.40
2022-12-18T16:34:23.662Z,22.30
2022-12-18T16:37:05.592Z,17.80
2022-12-18T16:39:40.682Z,11.70
2022-12-18T16:42:20.310Z,25.30
2022-12-18T16:44:54.260Z,20.00
2022-12-18T16:47:27.747Z,18.50
2022-12-18T16:50:00.814Z,21.00
2022-12-18T16:52:33.716Z,14.00
2022-12-18T16:55:07.659Z,15.10
2022-12-18T16:57:41.436Z,19.00
2022-12-18T17:00:18.681Z,12.10
2022-12-18T17:02:51.920Z,17.70
2022-12-18T17:05:25.294Z,19.50
2022-12-18T17:07:58.525Z,17.50
2022-12-18T17:10:31.858Z,19.70
2022-12-18T17:13:04.967Z,18.20
2022-12-18T17:15:40.795Z,19.80
2022-12-18T17:18:13.861Z,18.70
2022-12-18T17:20:46.777Z,13.40
2022-12-18T17:23:20.082Z,18.10
2022-12-18T17:25:55.774Z,21.50
2022-12-18T17:28:30.217Z,16.10
2022-12-18T17:31:04.310Z,14.00
2022-12-18T17:33:38.827Z,19.30
2022-12-18T17:36:14.475Z,18.60
2022-12-18T17:38:53.999Z,21.40
2022-12-18T17:41:28.090Z,15.80
2022-12-18T17:44:04.456Z,19.50
2022-12-18T17:46:39.436Z,18.90
2022-12-18T17:49:13.372Z,20.90
2022-12-18T17:51:46.463Z,21.20
2022-12-18T17:54:19.693Z,17.10
2022-12-18T17:56:52.596Z,17.30
2022-12-18T17:59:25.615Z,22.50
2022-12-18T18:01:58.641Z,21.40
2022-12-18T18:04:32.148Z,16.70
2022-12-18T18:07:05.096Z,19.80
2022-12-18T18:09:38.168Z,21.90
2022-12-18T18:12:28.774Z,17.70
2022-12-18T18:15:01.776Z,20.30
2022-12-18T18:17:35.463Z,25.60
2022-12-18T18:20:10.261Z,17.80
2022-12-18T18:22:43.145Z,20.50
2022-12-18T18:25:17.125Z,24.70
2022-12-18T18:27:51.168Z,18.00
2022-12-18T18:30:24.112Z,24.90
2022-12-18T18:32:56.963Z,19.20
2022-12-18T18:35:53.406Z,22.80
2022-12-18T18:38:23.319Z,17.30
2022-12-18T18:41:04.790Z,19.60
2022-12-18T18:43:38.198Z,32.50
2022-12-18T18:46:15.162Z,12.80
2022-12-18T18:48:48.195Z,23.60
2022-12-18T18:51:22.712Z,28.50
2022-12-18T18:53:56.714Z,28.60
2022-12-18T18:56:56.183Z,25.30
2022-12-18T18:59:31.700Z,24.50
2022-12-18T19:04:41.224Z,15.60
2022-12-18T19:07:28.119Z,26.60
2022-12-18T19:10:04.559Z,26.10
2022-12-18T19:12:56.302Z,26.50
2022-12-18T19:15:29.629Z,21.80
2022-12-18T19:18:02.559Z,25.70
2022-12-18T19:20:36.315Z,22.40
2022-12-18T19:23:09.221Z,27.40
2022-12-18T19:25:43.622Z,25.00
2022-12-18T19:28:21.851Z,27.60
2022-12-18T19:30:59.420Z,18.70
2022-12-18T19:33:43.108Z,23.40
2022-12-18T19:36:22.405Z,25.60
2022-12-18T19:38:57.573Z,24.50
2022-12-18T19:41:32.891Z,38.50
2022-12-18T19:44:08.191Z,33.80
2022-12-18T19:46:42.522Z,38.40
2022-12-18T19:49:18.036Z,24.60
2022-12-18T19:51:51.342Z,20.90
2022-12-18T19:54:24.257Z,30.50
2022-12-18T19:56:59.275Z,27.30
2022-12-18T19:59:32.283Z,32.10
2022-12-18T20:02:05.423Z,25.40
2022-12-18T20:04:38.277Z,17.60
2022-12-18T20:07:11.612Z,22.60
2022-12-18T20:09:44.696Z,30.60
2022-12-18T20:12:18.606Z,29.70
2022-12-18T20:14:51.553Z,32.10
2022-12-18T20:17:24.413Z,21.70
2022-12-18T20:19:57.435Z,26.60
2022-12-18T20:22:30.855Z,36.20
2022-12-18T20:25:03.698Z,29.00
2022-12-18T20:27:36.894Z,29.10
2022-12-18T20:30:13.156Z,31.00
2022-12-18T20:32:45.977Z,33.10
2022-12-18T20:35:19.245Z,29.20
2022-12-18T20:37:52.882Z,32.40
2022-12-18T20:40:27.424Z,21.90
2022-12-18T20:43:00.439Z,26.30
2022-12-18T20:45:34.066Z,30.50
2022-12-18T20:48:07.396Z,23.80
2022-12-18T20:50:40.552Z,24.90
2022-12-18T20:53:13.557Z,30.20
2022-12-18T20:55:49.585Z,32.50
2022-12-18T20:58:22.610Z,33.70
2022-12-18T21:01:05.673Z,20.80
2022-12-18T21:03:38.997Z,25.40
2022-12-18T21:06:12.978Z,31.10
2022-12-18T21:08:46.763Z,29.10
2022-12-18T21:11:58.081Z,25.90
2022-12-18T21:14:32.261Z,27.60
2022-12-18T21:17:05.121Z,23.00
2022-12-18T21:19:38.330Z,27.60
2022-12-18T21:22:12.905Z,24.70
2022-12-18T21:24:45.841Z,20.60
2022-12-18T21:27:18.991Z,30.20
2022-12-18T21:29:52.665Z,29.70
2022-12-18T21:32:25.697Z,27.00
2022-12-18T21:35:02.169Z,26.30
2022-12-18T21:37:35.092Z,32.30
2022-12-18T21:40:10.126Z,23.70
2022-12-18T21:43:00.902Z,27.20
2022-12-18T21:45:33.834Z,31.00
2022-12-18T21:48:07.367Z,29.90
2022-12-18T21:50:40.291Z,22.00
2022-12-18T21:53:13.243Z,25.00
2022-12-18T21:55:46.177Z,24.30
2022-12-18T21:58:19.188Z,30.30
2022-12-18T22:00:52.633Z,30.70
2022-12-18T22:03:25.661Z,30.20
2022-12-18T22:06:09.484Z,33.50
2022-12-18T22:08:43.615Z,29.50
2022-12-18T22:11:17.575Z,30.20
2022-12-18T22:13:51.963Z,23.80
2022-12-18T22:16:25.045Z,25.40
2022-12-18T22:18:58.056Z,26.20
2022-12-18T22:21:33.040Z,29.70
2022-12-18T22:24:08.986Z,25.00
2022-12-18T22:26:42.409Z,36.50
2022-12-18T22:29:36.736Z,22.10
2022-12-18T22:32:13.098Z,21.30
2022-12-18T22:34:48.023Z,30.70
2022-12-18T22:37:20.966Z,30.30
2022-12-18T22:39:53.876Z,28.50
2022-12-18T22:42:27.120Z,31.10
2022-12-18T22:45:00.575Z,14.60
2022-12-18T22:47:33.724Z,29.50
2022-12-18T22:50:07.297Z,28.30
2022-12-18T22:52:40.332Z,21.50
2022-12-18T22:55:13.890Z,26.50
2022-12-18T22:57:48.668Z,34.20
2022-12-18T23:00:24.187Z,23.00
2022-12-18T23:03:00.984Z,30.30
2022-12-18T23:05:35.506Z,30.00
2022-12-18T23:08:08.628Z,32.40
2022-12-18T23:10:43.027Z,30.20
2022-12-18T23:13:15.870Z,27.80
2022-12-18T23:15:48.975Z,27.10
2022-12-18T23:18:22.273Z,35.10
2022-12-18T23:20:55.502Z,28.70
2022-12-18T23:23:29.519Z,26.60
2022-12-18T23:26:10.078Z,32.80
2022-12-18T23:28:43.743Z,24.90
2022-12-18T23:31:19.449Z,27.80
2022-12-18T23:33:54.071Z,29.80
2022-12-18T23:36:28.239Z,32.40
2022-12-18T23:39:04.101Z,31.60
2022-12-18T23:41:37.325Z,28.20
2022-12-18T23:44:11.097Z,20.40
2022-12-18T23:46:44.134Z,34.60
2022-12-18T23:49:17.066Z,33.80
2022-12-18T23:51:50.103Z,31.10
2022-12-18T23:54:32.877Z,34.80
2022-12-18T23:57:06.856Z,28.60
2022-12-18T23:59:39.813Z,29.20
